createdAt,value
2018-09-08T00:00:44.798Z,15.90
2018-09-08T00:03:13.298Z,15.80
2018-09-08T00:05:41.870Z,15.80
2018-09-08T00:08:10.397Z,15.90
2018-09-08T00:10:40.465Z,16.00
2018-09-08T00:13:09.048Z,16.00
2018-09-08T00:15:42.909Z,15.90
2018-09-08T00:18:18.558Z,15.90
2018-09-08T00:20:52.269Z,15.80
2018-09-08T00:23:26.149Z,15.80
2018-09-08T00:26:00.622Z,15.70
2018-09-08T00:28:35.406Z,15.60
2018-09-08T00:31:03.925Z,15.60
2018-09-08T00:33:32.797Z,15.50
2018-09-08T00:36:01.248Z,15.70
2018-09-08T00:38:29.808Z,15.70
2018-09-08T00:40:58.237Z,15.60
2018-09-08T00:43:26.757Z,15.50
2018-09-08T00:45:55.272Z,15.50
2018-09-08T00:48:23.783Z,15.60
2018-09-08T00:50:53.180Z,15.70
2018-09-08T00:53:21.668Z,15.30
2018-09-08T00:55:50.201Z,15.30
2018-09-08T00:58:19.616Z,15.50
2018-09-08T01:00:48.134Z,15.50
2018-09-08T01:03:17.197Z,15.60
2018-09-08T01:05:45.732Z,15.50
2018-09-08T01:08:15.496Z,15.50
2018-09-08T01:10:43.990Z,15.40
2018-09-08T01:13:12.458Z,15.30
2018-09-08T01:15:40.954Z,15.40
2018-09-08T01:18:13.253Z,15.50
2018-09-08T01:20:41.739Z,15.40
2018-09-08T01:23:10.880Z,15.20
2018-09-08T01:25:40.147Z,15.20
2018-09-08T01:28:08.646Z,15.20
2018-09-08T01:30:37.140Z,15.20
2018-09-08T01:33:05.813Z,15.30
2018-09-08T01:35:34.294Z,15.20
2018-09-08T01:38:02.815Z,15.30
2018-09-08T01:40:31.982Z,15.30
2018-09-08T01:43:00.610Z,15.20
2018-09-08T01:45:29.091Z,15.10
2018-09-08T01:47:57.584Z,15.30
2018-09-08T01:50:27.021Z,15.10
2018-09-08T01:52:55.511Z,15.10
2018-09-08T01:55:23.956Z,15.10
2018-09-08T01:57:52.493Z,15.10
2018-09-08T02:00:20.963Z,14.90
2018-09-08T02:02:49.477Z,14.90
2018-09-08T02:05:18.333Z,14.90
2018-09-08T02:07:46.805Z,14.80
2018-09-08T02:10:15.340Z,14.40
2018-09-08T02:12:44.189Z,14.40
2018-09-08T02:15:12.697Z,14.40
2018-09-08T02:17:41.157Z,14.50
2018-09-08T02:20:09.712Z,14.60
2018-09-08T02:22:38.234Z,14.50
2018-09-08T02:25:07.101Z,14.50
2018-09-08T02:27:35.663Z,14.70
2018-09-08T02:30:04.664Z,14.80
2018-09-08T02:32:33.489Z,14.90
2018-09-08T02:35:01.958Z,14.80
2018-09-08T02:37:30.414Z,14.80
2018-09-08T02:39:58.880Z,14.80
2018-09-08T02:42:27.452Z,14.90
2018-09-08T02:44:56.885Z,14.70
2018-09-08T02:47:25.349Z,14.60
2018-09-08T02:50:05.423Z,14.40
2018-09-08T02:52:44.987Z,14.30
2018-09-08T02:55:24.717Z,14.30
2018-09-08T02:58:04.547Z,14.30
2018-09-08T03:00:44.455Z,13.90
2018-09-08T03:03:24.245Z,13.90
2018-09-08T03:06:04.049Z,13.80
2018-09-08T03:08:43.609Z,13.70
2018-09-08T03:11:23.322Z,13.60
2018-09-08T03:14:03.005Z,13.40
2018-09-08T03:16:43.253Z,13.40
2018-09-08T03:19:22.838Z,13.70
2018-09-08T03:22:02.495Z,13.50
2018-09-08T03:24:42.257Z,13.50
2018-09-08T03:27:25.344Z,13.40
2018-09-08T03:30:05.025Z,13.30
2018-09-08T03:32:44.684Z,13.20
2018-09-08T03:35:24.236Z,13.30
2018-09-08T03:38:04.456Z,13.40
2018-09-08T03:40:44.170Z,13.10
2018-09-08T03:43:23.873Z,13.20
2018-09-08T03:46:03.706Z,13.10
2018-09-08T03:48:43.524Z,13.10
2018-09-08T03:51:23.134Z,13.00
2018-09-08T03:54:07.613Z,13.00
2018-09-08T03:56:47.485Z,13.00
2018-09-08T03:59:28.313Z,13.00
2018-09-08T04:02:07.849Z,12.80
2018-09-08T04:04:36.299Z,12.80
2018-09-08T04:07:04.913Z,12.80
2018-09-08T04:09:33.482Z,12.80
2018-09-08T04:12:01.930Z,12.60
2018-09-08T04:14:30.922Z,12.60
2018-09-08T04:16:59.797Z,12.70
2018-09-08T04:19:28.795Z,12.60
2018-09-08T04:21:57.331Z,12.50
2018-09-08T04:24:25.887Z,12.50
2018-09-08T04:26:54.402Z,12.50
2018-09-08T04:29:22.883Z,12.40
2018-09-08T04:31:51.401Z,12.80
2018-09-08T04:34:19.868Z,12.20
2018-09-08T04:36:48.325Z,12.30
2018-09-08T04:39:16.838Z,12.10
2018-09-08T04:41:45.480Z,12.00
2018-09-08T04:44:13.967Z,12.00
2018-09-08T04:46:42.517Z,11.90
2018-09-08T04:49:11.148Z,11.90
2018-09-08T04:51:39.640Z,12.00
2018-09-08T04:54:13.198Z,12.10
2018-09-08T04:56:41.657Z,12.00
2018-09-08T04:59:10.386Z,11.90
2018-09-08T05:01:38.937Z,11.70
2018-09-08T05:04:07.402Z,11.90
2018-09-08T05:06:35.914Z,11.80
2018-09-08T05:09:08.288Z,11.70
2018-09-08T05:11:37.019Z,12.00
2018-09-08T05:14:05.747Z,12.20
2018-09-08T05:16:34.183Z,12.50
2018-09-08T05:19:03.275Z,12.30
2018-09-08T05:21:31.779Z,12.30
2018-09-08T05:24:00.253Z,12.00
2018-09-08T05:26:28.807Z,11.80
2018-09-08T05:28:57.303Z,11.60
2018-09-08T05:31:25.926Z,11.50
2018-09-08T05:33:54.442Z,11.60
2018-09-08T05:36:23.015Z,11.70
2018-09-08T05:38:51.537Z,11.60
2018-09-08T05:41:20.011Z,11.60
2018-09-08T05:43:48.955Z,11.70
2018-09-08T05:46:17.846Z,11.70
2018-09-08T05:48:46.955Z,11.60
2018-09-08T05:51:15.485Z,12.00
2018-09-08T05:53:44.065Z,12.10
2018-09-08T05:56:12.532Z,12.50
2018-09-08T05:58:41.037Z,12.20
2018-09-08T06:01:10.205Z,12.30
2018-09-08T06:03:38.696Z,12.20
2018-09-08T06:06:07.206Z,12.10
2018-09-08T06:08:35.633Z,12.10
2018-09-08T06:11:04.191Z,12.00
2018-09-08T06:13:32.691Z,12.00
2018-09-08T06:16:01.224Z,12.00
2018-09-08T06:18:29.791Z,12.10
2018-09-08T06:20:58.282Z,12.50
2018-09-08T06:23:26.788Z,12.20
2018-09-08T06:25:55.322Z,12.00
2018-09-08T06:28:23.847Z,12.00
2018-09-08T06:30:52.257Z,11.80
2018-09-08T06:33:20.789Z,11.80
2018-09-08T06:35:49.629Z,11.90
2018-09-08T06:38:18.189Z,12.10
2018-09-08T06:40:46.715Z,12.10
2018-09-08T06:43:15.208Z,12.30
2018-09-08T06:45:43.674Z,12.20
2018-09-08T06:48:12.145Z,12.10
2018-09-08T06:50:40.638Z,12.20
2018-09-08T06:53:09.647Z,12.30
2018-09-08T06:55:38.475Z,12.30
2018-09-08T06:58:07.277Z,12.50
2018-09-08T07:00:35.826Z,12.60
2018-09-08T07:03:04.351Z,12.60
2018-09-08T07:05:32.876Z,12.70
2018-09-08T07:08:01.293Z,12.80
2018-09-08T07:10:29.780Z,12.90
2018-09-08T07:12:58.274Z,13.00
2018-09-08T07:15:26.913Z,13.20
2018-09-08T07:17:55.454Z,13.40
2018-09-08T07:20:24.328Z,13.60
2018-09-08T07:22:53.216Z,13.70
2018-09-08T07:25:21.758Z,13.50
2018-09-08T07:27:50.974Z,13.60
2018-09-08T07:30:19.435Z,13.70
2018-09-08T07:32:48.298Z,13.90
2018-09-08T07:35:17.302Z,14.00
2018-09-08T07:37:46.551Z,14.10
2018-09-08T07:40:15.068Z,14.20
2018-09-08T07:42:43.552Z,14.20
2018-09-08T07:45:14.179Z,14.30
2018-09-08T07:47:42.935Z,14.60
2018-09-08T07:50:11.509Z,14.70
2018-09-08T07:52:40.672Z,15.00
2018-09-08T07:55:09.214Z,15.20
2018-09-08T07:57:38.358Z,15.60
2018-09-08T08:00:09.700Z,15.80
2018-09-08T08:02:38.313Z,16.00
2018-09-08T08:05:07.336Z,16.10
2018-09-08T08:07:35.874Z,16.30
2018-09-08T08:10:04.583Z,16.60
2018-09-08T08:12:33.054Z,16.80
2018-09-08T08:15:02.722Z,17.20
2018-09-08T08:17:32.027Z,17.20
2018-09-08T08:20:00.580Z,17.30
2018-09-08T08:22:29.078Z,17.70
2018-09-08T08:24:57.560Z,18.00
2018-09-08T08:27:26.134Z,18.00
2018-09-08T08:29:54.693Z,17.80
2018-09-08T08:32:23.248Z,17.90
2018-09-08T08:34:51.810Z,17.90
2018-09-08T08:37:20.422Z,17.70
2018-09-08T08:39:49.490Z,17.60
2018-09-08T08:42:18.099Z,17.50
2018-09-08T08:44:46.606Z,18.00
2018-09-08T08:47:16.123Z,18.10
2018-09-08T08:49:45.954Z,18.20
2018-09-08T08:52:25.869Z,17.70
2018-09-08T08:54:55.607Z,18.00
2018-09-08T08:57:24.142Z,19.00
2018-09-08T08:59:53.467Z,18.90
2018-09-08T09:02:22.023Z,18.90
2018-09-08T09:04:50.540Z,18.80
2018-09-08T09:07:19.041Z,18.50
2018-09-08T09:09:47.656Z,18.30
2018-09-08T09:12:16.180Z,18.20
2018-09-08T09:14:46.957Z,18.30
2018-09-08T09:17:16.182Z,18.20
2018-09-08T09:19:55.818Z,18.30
2018-09-08T09:22:35.447Z,18.00
2018-09-08T09:25:06.840Z,18.40
2018-09-08T09:27:36.999Z,18.50
2018-09-08T09:30:07.797Z,19.30
2018-09-08T09:32:36.326Z,18.70
2018-09-08T09:35:05.003Z,18.60
2018-09-08T09:37:33.554Z,19.70
2018-09-08T09:40:02.063Z,19.70
2018-09-08T09:42:30.696Z,19.50
2018-09-08T09:44:59.276Z,19.20
2018-09-08T09:47:27.853Z,19.10
2018-09-08T09:49:56.439Z,20.20
2018-09-08T09:52:24.960Z,19.70
2018-09-08T09:54:53.500Z,19.80
2018-09-08T09:57:22.039Z,20.30
2018-09-08T09:59:51.316Z,20.20
2018-09-08T10:02:50.370Z,19.90
2018-09-08T10:05:23.815Z,19.40
2018-09-08T10:07:54.222Z,19.80
2018-09-08T10:10:25.294Z,20.30
2018-09-08T10:12:53.902Z,20.80
2018-09-08T10:15:22.471Z,21.00
2018-09-08T10:17:50.960Z,20.80
2018-09-08T10:20:20.834Z,20.70
2018-09-08T10:22:50.311Z,20.30
2018-09-08T10:25:20.028Z,19.80
2018-09-08T10:27:49.025Z,19.60
2018-09-08T10:30:18.560Z,19.60
2018-09-08T10:32:47.657Z,20.40
2018-09-08T10:35:16.247Z,21.20
2018-09-08T10:37:45.475Z,20.80
2018-09-08T10:40:14.589Z,21.30
2018-09-08T10:42:43.377Z,20.60
2018-09-08T10:45:15.469Z,19.90
2018-09-08T10:47:44.037Z,20.50
2018-09-08T10:50:12.734Z,20.90
2018-09-08T10:52:45.014Z,21.40
2018-09-08T10:55:14.455Z,21.90
2018-09-08T10:57:43.009Z,21.60
2018-09-08T11:00:12.570Z,21.70
2018-09-08T11:02:41.173Z,21.40
2018-09-08T11:05:09.632Z,20.50
2018-09-08T11:07:38.065Z,20.20
2018-09-08T11:10:06.988Z,20.40
2018-09-08T11:12:35.506Z,21.50
2018-09-08T11:15:04.741Z,22.00
2018-09-08T11:17:33.296Z,21.50
2018-09-08T11:20:02.006Z,21.20
2018-09-08T11:22:30.754Z,20.80
2018-09-08T11:25:06.233Z,21.70
2018-09-08T11:27:34.935Z,21.40
2018-09-08T11:30:03.488Z,20.90
2018-09-08T11:32:32.085Z,21.20
2018-09-08T11:35:00.599Z,21.00
2018-09-08T11:37:30.316Z,21.20
2018-09-08T11:39:58.853Z,20.70
2018-09-08T11:42:27.347Z,20.50
2018-09-08T11:44:55.980Z,20.90
2018-09-08T11:47:24.423Z,21.00
2018-09-08T11:49:52.945Z,21.80
2018-09-08T11:52:22.520Z,22.50
2018-09-08T11:54:51.064Z,21.90
2018-09-08T11:57:20.146Z,21.60
2018-09-08T11:59:48.733Z,21.60
2018-09-08T12:02:17.329Z,21.20
2018-09-08T12:04:46.369Z,21.70
2018-09-08T12:07:16.180Z,22.60
2018-09-08T12:09:44.684Z,22.20
2018-09-08T12:12:13.146Z,21.60
2018-09-08T12:14:41.855Z,21.40
2018-09-08T12:17:10.447Z,21.20
2018-09-08T12:19:39.151Z,21.30
2018-09-08T12:22:07.672Z,21.20
2018-09-08T12:24:36.130Z,21.40
2018-09-08T12:27:07.755Z,21.70
2018-09-08T12:29:36.944Z,22.30
2018-09-08T12:32:05.439Z,22.20
2018-09-08T12:34:34.506Z,22.00
2018-09-08T12:37:03.018Z,21.50
2018-09-08T12:39:32.110Z,21.70
2018-09-08T12:42:00.655Z,22.00
2018-09-08T12:44:29.241Z,22.10
2018-09-08T12:46:58.045Z,22.10
2018-09-08T12:49:26.518Z,22.20
2018-09-08T12:51:54.989Z,22.00
2018-09-08T12:54:23.477Z,21.80
2018-09-08T12:56:52.296Z,21.90
2018-09-08T12:59:20.877Z,21.70
2018-09-08T13:01:49.437Z,21.70
2018-09-08T13:04:17.929Z,22.30
2018-09-08T13:06:46.390Z,22.20
2018-09-08T13:09:14.875Z,22.00
2018-09-08T13:11:43.422Z,22.20
2018-09-08T13:14:11.914Z,22.00
2018-09-08T13:16:40.381Z,22.00
2018-09-08T13:19:08.988Z,22.10
2018-09-08T13:21:37.541Z,22.40
2018-09-08T13:24:06.106Z,22.30
2018-09-08T13:26:34.595Z,22.50
2018-09-08T13:29:03.283Z,22.80
2018-09-08T13:31:31.799Z,22.50
2018-09-08T13:34:01.067Z,22.00
2018-09-08T13:36:29.563Z,22.30
2018-09-08T13:38:58.033Z,22.50
2018-09-08T13:41:26.724Z,22.40
2018-09-08T13:43:55.358Z,22.00
2018-09-08T13:46:23.885Z,22.40
2018-09-08T13:48:52.382Z,22.60
2018-09-08T13:51:20.837Z,22.30
2018-09-08T13:53:49.674Z,22.60
2018-09-08T13:56:18.230Z,22.60
2018-09-08T13:58:46.802Z,22.90
2018-09-08T14:01:15.304Z,22.80
2018-09-08T14:03:43.840Z,22.70
2018-09-08T14:06:12.324Z,22.90
2018-09-08T14:08:40.955Z,22.60
2018-09-08T14:11:09.660Z,22.40
2018-09-08T14:13:38.744Z,22.10
2018-09-08T14:16:07.229Z,22.30
2018-09-08T14:18:36.842Z,22.30
2018-09-08T14:21:05.830Z,22.40
2018-09-08T14:23:34.534Z,22.00
2018-09-08T14:26:03.046Z,21.90
2018-09-08T14:28:31.743Z,22.30
2018-09-08T14:31:00.856Z,22.00
2018-09-08T14:33:29.476Z,22.20
2018-09-08T14:35:59.454Z,22.30
2018-09-08T14:38:27.986Z,22.00
2018-09-08T14:40:56.687Z,22.00
2018-09-08T14:43:25.198Z,21.80
2018-09-08T14:45:53.820Z,21.90
2018-09-08T14:48:22.346Z,22.10
2018-09-08T14:50:50.770Z,22.40
2018-09-08T14:53:19.482Z,22.20
2018-09-08T14:55:47.966Z,21.90
2018-09-08T14:58:17.736Z,21.80
2018-09-08T15:00:46.210Z,22.00
2018-09-08T15:03:15.634Z,21.90
2018-09-08T15:05:44.243Z,21.90
2018-09-08T15:08:13.424Z,21.90
2018-09-08T15:10:42.648Z,21.70
2018-09-08T15:13:11.410Z,22.10
2018-09-08T15:15:39.992Z,22.30
2018-09-08T15:18:13.285Z,22.00
2018-09-08T15:20:41.981Z,22.10
2018-09-08T15:23:10.524Z,22.10
2018-09-08T15:25:39.134Z,21.90
2018-09-08T15:28:08.076Z,22.00
2018-09-08T15:30:36.622Z,21.90
2018-09-08T15:33:05.174Z,22.20
2018-09-08T15:35:33.620Z,22.20
2018-09-08T15:38:02.314Z,22.10
2018-09-08T15:40:30.864Z,22.20
2018-09-08T15:42:59.617Z,22.30
2018-09-08T15:45:28.303Z,22.10
2018-09-08T15:47:58.165Z,22.10
2018-09-08T15:50:26.690Z,22.00
2018-09-08T15:52:55.394Z,21.80
2018-09-08T15:55:25.583Z,21.70
2018-09-08T15:57:54.119Z,21.80
2018-09-08T16:00:22.742Z,21.90
2018-09-08T16:02:51.274Z,21.80
2018-09-08T16:05:19.850Z,21.80
2018-09-08T16:07:48.298Z,21.80
2018-09-08T16:10:16.832Z,21.70
2018-09-08T16:12:45.535Z,21.80
2018-09-08T16:15:14.053Z,21.70
2018-09-08T16:17:42.624Z,21.80
2018-09-08T16:20:11.142Z,21.80
2018-09-08T16:22:39.881Z,21.70
2018-09-08T16:25:08.334Z,21.70
2018-09-08T16:27:36.849Z,21.70
2018-09-08T16:30:06.133Z,21.60
2018-09-08T16:32:34.648Z,21.50
2018-09-08T16:35:03.159Z,21.40
2018-09-08T16:37:31.683Z,21.30
2018-09-08T16:40:00.623Z,21.30
2018-09-08T16:42:29.120Z,21.30
2018-09-08T16:44:57.591Z,21.10
2018-09-08T16:47:26.175Z,21.00
2018-09-08T16:49:54.855Z,20.90
2018-09-08T16:52:23.368Z,20.80
2018-09-08T16:54:51.982Z,20.70
2018-09-08T16:57:20.458Z,20.50
2018-09-08T16:59:49.341Z,20.70
2018-09-08T17:02:18.290Z,20.70
2018-09-08T17:04:46.947Z,20.70
2018-09-08T17:07:16.418Z,20.70
2018-09-08T17:09:45.051Z,20.60
2018-09-08T17:12:13.744Z,20.50
2018-09-08T17:14:42.274Z,20.50
2018-09-08T17:17:10.828Z,20.30
2018-09-08T17:19:39.573Z,20.10
2018-09-08T17:22:10.280Z,20.00
2018-09-08T17:24:39.860Z,19.80
2018-09-08T17:27:13.288Z,19.70
2018-09-08T17:29:41.832Z,19.60
2018-09-08T17:32:10.308Z,19.70
2018-09-08T17:34:39.462Z,19.60
2018-09-08T17:37:07.985Z,19.50
2018-09-08T17:39:36.625Z,19.50
2018-09-08T17:42:05.958Z,19.30
2018-09-08T17:44:34.686Z,19.30
2018-09-08T17:47:03.555Z,19.20
2018-09-08T17:49:32.288Z,19.10
2018-09-08T17:52:01.083Z,18.90
2018-09-08T17:54:29.840Z,18.70
2018-09-08T17:56:58.889Z,18.70
2018-09-08T17:59:27.402Z,18.80
2018-09-08T18:01:56.793Z,18.80
2018-09-08T18:04:25.332Z,18.80
2018-09-08T18:06:53.805Z,18.60
2018-09-08T18:09:22.320Z,18.30
2018-09-08T18:11:51.195Z,18.20
2018-09-08T18:14:20.611Z,17.90
2018-09-08T18:16:50.454Z,18.00
2018-09-08T18:19:19.002Z,18.00
2018-09-08T18:21:47.425Z,17.80
2018-09-08T18:24:16.194Z,17.60
2018-09-08T18:26:44.853Z,17.50
2018-09-08T18:29:13.465Z,17.40
2018-09-08T18:31:42.980Z,17.40
2018-09-08T18:34:12.613Z,17.40
2018-09-08T18:36:41.135Z,17.20
2018-09-08T18:39:09.969Z,17.10
2018-09-08T18:41:38.546Z,17.10
2018-09-08T18:44:07.818Z,17.00
2018-09-08T18:46:36.298Z,17.00
2018-09-08T18:49:04.850Z,17.10
2018-09-08T18:51:33.686Z,17.00
2018-09-08T18:54:02.295Z,16.90
2018-09-08T18:56:30.779Z,16.80
2018-09-08T18:58:59.413Z,16.70
2018-09-08T19:01:28.134Z,16.80
2018-09-08T19:03:56.702Z,16.90
2018-09-08T19:06:25.726Z,16.80
2018-09-08T19:08:54.215Z,16.60
2018-09-08T19:11:22.785Z,16.50
2018-09-08T19:13:51.339Z,16.50
2018-09-08T19:16:19.906Z,16.50
2018-09-08T19:18:48.658Z,16.50
2018-09-08T19:21:17.185Z,16.50
2018-09-08T19:23:51.174Z,16.40
2018-09-08T19:26:20.995Z,16.30
2018-09-08T19:28:53.837Z,16.30
2018-09-08T19:31:22.627Z,16.30
2018-09-08T19:33:52.213Z,16.10
2018-09-08T19:36:22.137Z,15.90
2018-09-08T19:38:50.684Z,16.00
2018-09-08T19:41:19.619Z,16.20
2018-09-08T19:43:48.178Z,16.20
2018-09-08T19:46:22.891Z,16.10
2018-09-08T19:48:51.364Z,16.10
2018-09-08T19:51:21.358Z,16.00
2018-09-08T19:53:56.937Z,16.20
2018-09-08T19:56:30.845Z,16.00
2018-09-08T19:59:00.104Z,15.90
2018-09-08T20:01:29.571Z,16.00
2018-09-08T20:03:58.447Z,16.10
2018-09-08T20:06:27.140Z,16.10
2018-09-08T20:08:59.594Z,15.90
2018-09-08T20:11:29.301Z,16.00
2018-09-08T20:13:58.122Z,15.80
2018-09-08T20:16:26.696Z,15.80
2018-09-08T20:18:55.286Z,16.00
2018-09-08T20:21:23.883Z,16.00
2018-09-08T20:23:52.399Z,15.90
2018-09-08T20:26:21.006Z,15.80
2018-09-08T20:28:49.572Z,15.80
2018-09-08T20:31:18.186Z,15.90
2018-09-08T20:33:46.789Z,15.80
2018-09-08T20:36:15.270Z,15.70
2018-09-08T20:38:43.813Z,15.70
2018-09-08T20:41:12.339Z,15.60
2018-09-08T20:43:41.635Z,15.60
2018-09-08T20:46:10.244Z,15.40
2018-09-08T20:48:39.655Z,15.40
2018-09-08T20:51:08.140Z,15.10
2018-09-08T20:53:36.698Z,15.10
2018-09-08T20:56:05.221Z,15.10
2018-09-08T20:58:33.769Z,15.10
2018-09-08T21:01:03.212Z,15.00
2018-09-08T21:03:31.771Z,15.00
2018-09-08T21:06:00.291Z,14.80
2018-09-08T21:08:28.818Z,14.80
2018-09-08T21:10:57.392Z,14.90
2018-09-08T21:13:25.923Z,14.80
2018-09-08T21:15:54.785Z,14.70
2018-09-08T21:18:23.328Z,14.80
2018-09-08T21:20:52.045Z,14.80
2018-09-08T21:23:21.588Z,14.60
2018-09-08T21:25:51.135Z,14.50
2018-09-08T21:28:19.687Z,14.50
2018-09-08T21:30:48.290Z,14.40
2018-09-08T21:33:17.324Z,14.40
2018-09-08T21:35:46.527Z,14.30
2018-09-08T21:38:16.712Z,14.30
2018-09-08T21:40:45.941Z,14.40
2018-09-08T21:43:14.493Z,14.40
2018-09-08T21:45:43.274Z,14.10
2018-09-08T21:48:12.861Z,13.90
2018-09-08T21:50:41.354Z,13.70
2018-09-08T21:53:10.362Z,14.00
2018-09-08T21:55:38.825Z,14.20
2018-09-08T21:58:07.320Z,14.20
2018-09-08T22:00:35.873Z,14.10
2018-09-08T22:03:04.432Z,14.00
2018-09-08T22:05:33.068Z,14.00
2018-09-08T22:08:01.583Z,14.00
2018-09-08T22:10:30.117Z,13.90
2018-09-08T22:12:58.669Z,14.00
2018-09-08T22:15:27.129Z,13.80
2018-09-08T22:17:55.693Z,13.90
2018-09-08T22:20:24.271Z,13.90
2018-09-08T22:22:52.813Z,13.90
2018-09-08T22:25:21.673Z,13.90
2018-09-08T22:27:50.193Z,13.80
2018-09-08T22:30:19.226Z,13.70
2018-09-08T22:32:48.002Z,13.60
2018-09-08T22:35:16.468Z,13.80
2018-09-08T22:37:45.229Z,13.60
2018-09-08T22:40:13.926Z,13.60
2018-09-08T22:42:42.564Z,13.70
2018-09-08T22:45:13.282Z,13.50
2018-09-08T22:47:41.826Z,13.40
2018-09-08T22:50:10.439Z,13.40
2018-09-08T22:52:38.954Z,13.40
2018-09-08T22:55:08.064Z,13.40
2018-09-08T22:57:37.492Z,13.40
2018-09-08T23:00:13.902Z,13.40
2018-09-08T23:02:42.393Z,13.60
2018-09-08T23:05:10.908Z,13.50
2018-09-08T23:07:39.383Z,13.50
2018-09-08T23:10:07.862Z,13.30
2018-09-08T23:12:36.809Z,13.20
2018-09-08T23:15:06.574Z,13.30
2018-09-08T23:17:35.106Z,13.20
2018-09-08T23:20:03.651Z,13.00
2018-09-08T23:22:32.171Z,12.90
2018-09-08T23:25:00.872Z,12.90
2018-09-08T23:27:29.349Z,12.80
2018-09-08T23:29:57.899Z,12.70
2018-09-08T23:32:26.378Z,12.80
2018-09-08T23:34:54.949Z,12.70
2018-09-08T23:37:23.396Z,12.70
2018-09-08T23:39:53.284Z,12.90
2018-09-08T23:42:21.743Z,12.90
2018-09-08T23:44:51.533Z,12.80
2018-09-08T23:47:19.979Z,12.80
2018-09-08T23:49:48.455Z,12.80
2018-09-08T23:52:17.010Z,12.60
2018-09-08T23:54:45.469Z,12.60
2018-09-08T23:57:14.029Z,12.60
2018-09-08T23:59:42.530Z,12.50
